• Join FlightAware (Why Join?)
  • Login
  • US Flag 
01:35PM EST


 

Airport Tracker/Info


-or-


 

Live Flight TrackerFlight Track Log ✈ SWA1258 ✈ 05-May-2013 ✈ KMHT - KBWI

Flight Track Log - Related Links

Times and Time Zones

All times are in EDT time to prevent confusion due to time zone crossing. See the SWA1258 flight status page for this flight to view local times or setup timezone preferences in your user account.

Time Position Orientation Groundspeed Altitude Reporting Facility
EDT Latitude Longitude Course Direction KTS MPH feet Rate Location/Type
02:01PM 42.9167 -71.4167 202° Southwest 143 165 1,000  Level KA90
02:02PM 42.8833 -71.4667 228° Southwest 196 226 3,700 1,800 Climbing KA90
02:04PM 42.9403 -71.4700 358° North 211 243 5,500 1,980 Climbing Boston Center
02:05PM 42.9728 -71.3817 63° Northeast 218 251 8,300 2,700 Climbing Boston Center
02:06PM 43.0031 -71.2817 67° East 261 300 11,000 2,760 Climbing Boston Center
02:07PM 42.8590 -70.9358 202° Southwest  Level FlightAware Approximate
02:07PM 43.0394 -71.1789 64° Northeast 306 352 13,900  Level Boston Center
02:08PM 43.0756 -71.0503 69° East 323 372 17,800 2,940 Climbing Boston Center
02:09PM 43.0556 -70.9483 105° East 342 394 19,800 2,520 Climbing Boston Center
02:10PM 42.9381 -70.9058 165° South 301 346 22,900 2,820 Climbing Boston Center
02:11PM 42.8347 -70.9536 199° South 313 360 25,500 2,160 Climbing Boston Center
02:12PM 42.7442 -71.0464 217° Southwest 353 406 27,300 1,560 Climbing Boston Center
02:13PM 42.6706 -71.1806 233° Southwest 396 456 28,700 1,800 Climbing Boston Center
02:14PM 42.5928 -71.3206 233° Southwest 431 496 31,000 2,220 Climbing Boston Center
02:15PM 42.5169 -71.4569 233° Southwest 452 520 33,200 1,500 Climbing Boston Center
02:16PM 42.4369 -71.5906 231° Southwest 462 532 34,000 360 Climbing Boston Center
02:17PM 42.3606 -71.7236 232° Southwest 462 532 34,000  Level Boston Center
02:18PM 42.2842 -71.8592 233° Southwest 462 532 34,000  Level Boston Center
02:19PM 42.2244 -71.9664 233° Southwest 462 532 34,000  Level Boston Center
02:20PM 42.1311 -72.1294 232° Southwest 462 532 34,000  Level Boston Center
02:21PM 42.0544 -72.2639 233° Southwest 462 532 34,000  Level Boston Center
02:22PM 41.9772 -72.3983 232° Southwest 462 532 34,000  Level Boston Center
02:23PM 41.9003 -72.5350 233° Southwest 462 532 34,000  Level Boston Center
02:24PM 41.8292 -72.6519 231° Southwest 462 532 34,000  Level Boston Center
02:25PM 41.7411 -72.8044 232° Southwest 470 541 34,000  Level Boston Center
02:26PM 41.6614 -72.9403 232° Southwest 470 541 34,000  Level Boston Center
02:27PM 41.5836 -73.0756 232° Southwest 470 541 34,000  Level Boston Center
02:28PM 41.5311 -73.1667 232° Southwest 470 541 34,000  Level Boston Center
02:30PM 41.3625 -73.4469 231° Southwest 465 535 34,000  Level New York Center
02:31PM 41.2844 -73.5792 232° Southwest 465 535 34,000  Level New York Center
02:32PM 41.2061 -73.7136 232° Southwest 460 529 34,000  Level New York Center
02:33PM 41.1258 -73.8453 231° Southwest 460 529 34,000  Level New York Center
02:34PM 41.0514 -73.9739 233° Southwest 460 529 34,000 -600 Level New York Center
02:35PM 40.9728 -74.1047 232° Southwest 460 529 32,900 -1,620 Descending New York Center
02:36PM 40.8967 -74.2164 228° Southwest 462 532 30,800 -2,100 Descending New York Center
02:37PM 40.8222 -74.3442 232° Southwest 462 532 28,700 -1,440 Descending New York Center
02:38PM 40.7497 -74.4664 232° Southwest 451 519 28,000 -360 Descending New York Center
02:39PM 40.6725 -74.5961 232° Southwest 451 519 28,000  Level New York Center
02:40PM 40.5933 -74.7256 231° Southwest 456 525 28,000  Level New York Center
02:41PM 40.5058 -74.8489 227° Southwest 461 531 28,000  Level New York Center
02:42PM 40.4200 -74.9719 228° Southwest 466 536 28,000 -960 Level New York Center
02:43PM 40.3344 -75.0947 228° Southwest 471 542 26,200 -2,100 Descending New York Center
02:44PM 40.2508 -75.2147 228° Southwest 465 535 23,900 -2,220 Descending New York Center
02:45PM 40.1694 -75.3261 226° Southwest 447 514 21,800 -2,160 Descending New York Center
02:46PM 40.0944 -75.4325 227° Southwest 425 489 19,600 -1,920 Descending New York Center
02:47PM 40.0086 -75.5433 225° Southwest 399 459 18,000 -840 Descending New York Center
02:48PM 39.9444 -75.6336 227° Southwest 382 440 18,000  Level New York Center
02:49PM 39.8772 -75.7481 233° Southwest 376 433 18,000 -840 Level New York Center
02:50PM 39.8250 -75.8472 236° Southwest 371 427 16,400 -1,740 Descending New York Center
02:52PM 39.6833 -76.1167 236° Southwest 323 372 12,000 -1,560 Descending Potomac TRACON
02:53PM 39.6500 -76.2167 247° West 307 353 11,100 -1,140 Descending Potomac TRACON
02:54PM 39.6167 -76.3167 247° West 298 343 9,800 -1,500 Descending Potomac TRACON
02:55PM 39.6000 -76.4167 258° West 299 344 8,300 -1,080 Descending Potomac TRACON
02:56PM 39.5667 -76.5167 247° West 288 331 7,700 -1,080 Descending Potomac TRACON
02:57PM 39.5333 -76.6000 243° Southwest 285 328 6,200 -1,500 Descending Potomac TRACON
02:58PM 39.5000 -76.6833 243° Southwest 281 323 4,700 -1,020 Descending Potomac TRACON
02:59PM 39.4333 -76.7333 210° Southwest 238 274 4,100 -360 Descending Potomac TRACON
03:00PM 39.3833 -76.7500 194° South 217 250 4,000 -540 Descending Potomac TRACON
03:01PM 39.3167 -76.7667 191° South 205 236 3,100 -900 Descending Potomac TRACON
03:02PM 39.2667 -76.7667 180° South 185 213 2,200 -840 Descending Potomac TRACON
03:03PM 39.2167 -76.7833 194° South 179 206 1,500 -540 Descending Potomac TRACON
03:04PM 39.1833 -76.7500 142° Southeast 179 206 1,100 -540 Descending Potomac TRACON
03:05PM 39.1833 -76.7000 90° East 125 144 400 -720 Descending Potomac TRACON
03:07PM 39.1667 -76.6667 270° West  Level FlightAware Approximate
03:14PM 39.1754 -76.6683 270° West  Level Estimated
03:15PM 39.1754 -76.6683 270° West  Level Estimated
03:16PM 39.1754 -76.6683 270° West  Level Estimated
03:17PM 39.1754 -76.6683 270° West  Level Estimated